createdAt,value
2022-11-05T00:00:32.623Z,9.93
2022-11-05T00:01:53.796Z,9.73
2022-11-05T00:03:14.489Z,9.71
2022-11-05T00:04:35.498Z,9.57
2022-11-05T00:05:55.993Z,9.59
2022-11-05T00:07:25.593Z,9.71
2022-11-05T00:08:46.001Z,9.82
2022-11-05T00:09:49.120Z,9.71
2022-11-05T00:10:51.338Z,9.61
2022-11-05T00:12:11.796Z,9.69
2022-11-05T00:13:34.044Z,9.75
2022-11-05T00:14:54.467Z,9.79
2022-11-05T00:16:14.932Z,9.65
2022-11-05T00:17:17.089Z,9.80
2022-11-05T00:18:19.347Z,9.84
2022-11-05T00:19:21.535Z,9.93
2022-11-05T00:20:23.667Z,10.02
2022-11-05T00:21:44.747Z,10.05
2022-11-05T00:23:05.722Z,9.95
2022-11-05T00:24:26.748Z,10.05
2022-11-05T00:25:30.264Z,9.97
2022-11-05T00:26:32.501Z,9.99
2022-11-05T00:27:34.672Z,9.99
2022-11-05T00:28:43.794Z,10.02
2022-11-05T00:29:46.447Z,10.05
2022-11-05T00:30:49.038Z,10.10
2022-11-05T00:31:51.221Z,10.11
2022-11-05T00:32:54.007Z,10.05
2022-11-05T00:33:56.175Z,10.02
2022-11-05T00:34:58.460Z,9.97
2022-11-05T00:36:02.735Z,9.97
2022-11-05T00:37:04.926Z,10.00
2022-11-05T00:38:07.118Z,10.19
2022-11-05T00:39:09.378Z,9.94
2022-11-05T00:40:13.724Z,10.10
2022-11-05T00:41:15.880Z,10.17
2022-11-05T00:42:36.401Z,10.24
2022-11-05T00:43:56.994Z,10.13
2022-11-05T00:45:01.989Z,10.02
2022-11-05T00:46:04.397Z,9.96
2022-11-05T00:47:25.528Z,10.12
2022-11-05T00:48:46.090Z,9.83
2022-11-05T00:49:48.286Z,9.67
2022-11-05T00:50:50.468Z,9.79
2022-11-05T00:52:12.604Z,9.74
2022-11-05T00:53:14.869Z,9.67
2022-11-05T00:54:17.039Z,9.75
2022-11-05T00:55:19.234Z,9.86
2022-11-05T00:56:21.441Z,9.75
2022-11-05T00:57:23.600Z,9.83
2022-11-05T00:58:27.253Z,9.92
2022-11-05T00:59:29.434Z,9.88
2022-11-05T01:00:33.516Z,9.92
2022-11-05T01:01:35.819Z,9.69
2022-11-05T01:02:38.159Z,9.76
2022-11-05T01:03:40.742Z,9.75
2022-11-05T01:04:42.921Z,9.61
2022-11-05T01:05:47.812Z,9.62
2022-11-05T01:06:49.996Z,9.60
2022-11-05T01:07:53.266Z,9.72
2022-11-05T01:08:55.848Z,9.66
2022-11-05T01:09:57.988Z,9.62
2022-11-05T01:11:00.225Z,9.65
2022-11-05T01:12:02.384Z,9.75
2022-11-05T01:13:08.777Z,9.77
2022-11-05T01:14:15.997Z,9.83
2022-11-05T01:15:19.344Z,9.93
2022-11-05T01:16:21.514Z,9.89
2022-11-05T01:17:23.686Z,9.90
2022-11-05T01:18:25.884Z,9.74
2022-11-05T01:19:29.257Z,9.76
2022-11-05T01:20:31.640Z,9.84
2022-11-05T01:21:34.008Z,9.70
2022-11-05T01:22:36.244Z,9.59
2022-11-05T01:23:38.510Z,9.45
2022-11-05T01:24:40.816Z,9.57
2022-11-05T01:25:43.556Z,9.67
2022-11-05T01:26:45.823Z,9.53
2022-11-05T01:27:47.996Z,9.44
2022-11-05T01:28:52.052Z,9.51
2022-11-05T01:29:54.286Z,9.54
2022-11-05T01:30:56.979Z,9.46
2022-11-05T01:31:59.107Z,9.61
2022-11-05T01:33:03.221Z,9.73
2022-11-05T01:34:05.404Z,9.44
2022-11-05T01:35:10.700Z,9.34
2022-11-05T01:36:13.083Z,9.21
2022-11-05T01:37:15.296Z,9.30
2022-11-05T01:38:18.336Z,9.38
2022-11-05T01:39:20.502Z,9.17
2022-11-05T01:40:23.971Z,9.17
2022-11-05T01:41:26.150Z,9.27
2022-11-05T01:42:28.715Z,9.33
2022-11-05T01:43:47.814Z,9.49
2022-11-05T01:44:57.392Z,9.63
2022-11-05T01:45:59.675Z,9.48
2022-11-05T01:47:01.947Z,9.56
2022-11-05T01:48:35.027Z,9.62
2022-11-05T01:49:37.444Z,9.66
2022-11-05T01:50:57.937Z,9.50
2022-11-05T01:52:04.620Z,9.41
2022-11-05T01:53:29.702Z,9.36
2022-11-05T01:54:33.844Z,9.31
2022-11-05T01:55:41.616Z,9.27
2022-11-05T01:56:49.894Z,9.41
2022-11-05T01:57:56.065Z,9.53
2022-11-05T01:59:05.464Z,9.62
2022-11-05T02:00:08.138Z,9.57
2022-11-05T02:01:15.892Z,9.66
2022-11-05T02:02:18.864Z,9.64
2022-11-05T02:03:21.342Z,9.62
2022-11-05T02:04:30.700Z,9.58
2022-11-05T02:05:33.967Z,9.70
2022-11-05T02:06:39.117Z,9.72
2022-11-05T02:07:45.307Z,9.71
2022-11-05T02:09:00.474Z,9.66
2022-11-05T02:10:08.792Z,9.81
2022-11-05T02:11:14.099Z,9.90
2022-11-05T02:12:16.321Z,9.91
2022-11-05T02:13:18.573Z,9.90
2022-11-05T02:14:20.873Z,9.76
2022-11-05T02:16:08.594Z,9.85
2022-11-05T02:17:26.624Z,9.83
2022-11-05T02:18:48.902Z,9.88
2022-11-05T02:19:59.944Z,9.82
2022-11-05T02:21:26.124Z,9.72
2022-11-05T02:22:50.493Z,9.70
2022-11-05T02:24:29.493Z,9.63
2022-11-05T02:25:52.648Z,9.78
2022-11-05T02:27:00.688Z,9.82
2022-11-05T02:28:14.823Z,9.86
2022-11-05T02:29:45.521Z,9.90
2022-11-05T02:30:52.040Z,9.77
2022-11-05T02:32:14.536Z,9.79
2022-11-05T02:33:34.882Z,9.94
2022-11-05T02:35:01.201Z,9.84
2022-11-05T02:36:12.165Z,9.57
2022-11-05T02:37:17.079Z,9.46
2022-11-05T02:38:55.178Z,9.50
2022-11-05T02:40:12.517Z,9.66
2022-11-05T02:41:29.608Z,9.65
2022-11-05T02:42:48.806Z,9.72
2022-11-05T02:44:45.053Z,9.62
2022-11-05T02:45:55.969Z,9.39
2022-11-05T02:46:58.158Z,9.43
2022-11-05T02:48:31.049Z,9.44
2022-11-05T02:50:01.339Z,9.35
2022-11-05T02:51:38.304Z,9.54
2022-11-05T02:52:48.124Z,9.64
2022-11-05T02:54:08.765Z,9.66
2022-11-05T02:55:25.632Z,9.75
2022-11-05T02:56:32.278Z,9.78
2022-11-05T02:57:36.618Z,9.80
2022-11-05T02:58:38.792Z,9.74
2022-11-05T02:59:41.026Z,9.80
2022-11-05T03:00:57.455Z,9.80
2022-11-05T03:02:01.712Z,9.83
2022-11-05T03:03:05.564Z,9.92
2022-11-05T03:04:11.473Z,9.94
2022-11-05T03:05:13.884Z,9.91
2022-11-05T03:06:43.223Z,9.88
2022-11-05T03:07:54.993Z,9.86
2022-11-05T03:09:29.527Z,9.69
2022-11-05T03:10:53.660Z,9.61
2022-11-05T03:12:49.928Z,9.59
2022-11-05T03:14:44.548Z,9.79
2022-11-05T03:16:06.022Z,9.63
2022-11-05T03:17:20.878Z,9.71
2022-11-05T03:18:26.850Z,9.77
2022-11-05T03:19:37.429Z,9.74
2022-11-05T03:21:11.176Z,9.66
2022-11-05T03:22:29.295Z,9.61
2022-11-05T03:23:58.557Z,9.64
2022-11-05T03:25:04.938Z,9.65
2022-11-05T03:26:12.512Z,9.53
2022-11-05T03:27:19.800Z,9.51
2022-11-05T03:28:25.921Z,9.38
2022-11-05T03:29:38.107Z,9.41
2022-11-05T03:30:42.292Z,9.44
2022-11-05T03:31:47.570Z,9.47
2022-11-05T03:33:00.394Z,9.44
2022-11-05T03:34:05.997Z,9.58
2022-11-05T03:35:16.885Z,9.61
2022-11-05T03:36:30.589Z,9.69
2022-11-05T03:37:37.420Z,9.64
2022-11-05T03:38:44.352Z,9.57
2022-11-05T03:39:50.764Z,9.72
2022-11-05T03:40:55.344Z,9.59
2022-11-05T03:41:58.953Z,9.67
2022-11-05T03:43:04.074Z,9.78
2022-11-05T03:44:08.938Z,10.12
2022-11-05T03:45:21.471Z,10.09
2022-11-05T03:46:32.106Z,9.93
2022-11-05T03:47:38.309Z,10.16
2022-11-05T03:48:47.248Z,10.05
2022-11-05T03:50:12.831Z,9.95
2022-11-05T03:51:37.115Z,10.00
2022-11-05T03:52:53.251Z,9.88
2022-11-05T03:53:59.077Z,9.89
2022-11-05T03:55:01.396Z,9.92
2022-11-05T03:56:08.530Z,10.12
2022-11-05T03:57:22.236Z,10.12
2022-11-05T03:58:25.824Z,10.07
2022-11-05T03:59:30.515Z,10.38
2022-11-05T04:00:33.322Z,10.14
2022-11-05T04:01:37.716Z,10.10
2022-11-05T04:02:40.154Z,10.09
2022-11-05T04:03:42.395Z,9.89
2022-11-05T04:04:44.711Z,9.81
2022-11-05T04:06:07.432Z,9.91
2022-11-05T04:07:29.365Z,9.97
2022-11-05T04:08:57.362Z,9.97
2022-11-05T04:10:18.433Z,10.06
2022-11-05T04:11:38.949Z,10.03
2022-11-05T04:12:59.616Z,9.80
2022-11-05T04:14:01.772Z,9.92
2022-11-05T04:15:04.045Z,9.92
2022-11-05T04:16:25.065Z,9.91
2022-11-05T04:17:27.197Z,9.88
2022-11-05T04:18:29.399Z,9.84
2022-11-05T04:19:50.940Z,9.74
2022-11-05T04:21:11.497Z,9.71
2022-11-05T04:22:32.461Z,9.74
2022-11-05T04:23:53.495Z,9.73
2022-11-05T04:24:55.660Z,9.74
2022-11-05T04:25:57.841Z,9.69
2022-11-05T04:27:00.013Z,9.79
2022-11-05T04:28:02.164Z,9.81
2022-11-05T04:29:23.115Z,9.82
2022-11-05T04:30:25.434Z,9.93
2022-11-05T04:31:27.596Z,9.90
2022-11-05T04:32:29.731Z,9.86
2022-11-05T04:33:31.893Z,9.74
2022-11-05T04:34:34.092Z,9.55
2022-11-05T04:35:37.952Z,9.62
2022-11-05T04:36:40.148Z,9.69
2022-11-05T04:37:42.385Z,9.73
2022-11-05T04:38:44.589Z,9.65
2022-11-05T04:39:46.737Z,9.56
2022-11-05T04:40:48.953Z,9.61
2022-11-05T04:41:51.300Z,9.64
2022-11-05T04:42:55.349Z,9.75
2022-11-05T04:43:57.550Z,9.81
2022-11-05T04:44:59.707Z,9.82
2022-11-05T04:46:01.896Z,9.88
2022-11-05T04:47:04.197Z,9.84
2022-11-05T04:48:06.495Z,9.62
2022-11-05T04:49:08.706Z,9.65
2022-11-05T04:50:12.119Z,9.56
2022-11-05T04:51:14.356Z,9.56
2022-11-05T04:52:17.849Z,9.52
2022-11-05T04:53:20.060Z,9.59
2022-11-05T04:54:22.224Z,9.67
2022-11-05T04:55:25.579Z,9.52
2022-11-05T04:56:27.759Z,9.52
2022-11-05T04:57:32.627Z,9.47
2022-11-05T04:58:39.516Z,9.57
2022-11-05T04:59:41.745Z,9.53
2022-11-05T05:00:43.995Z,9.58
2022-11-05T05:01:46.372Z,9.65
2022-11-05T05:02:49.208Z,9.69
2022-11-05T05:03:52.505Z,9.75
2022-11-05T05:04:54.711Z,9.74
2022-11-05T05:06:03.529Z,9.67
2022-11-05T05:07:06.268Z,9.72
2022-11-05T05:08:08.920Z,9.74
2022-11-05T05:09:11.126Z,9.77
2022-11-05T05:10:13.302Z,9.80
2022-11-05T05:11:17.642Z,9.85
2022-11-05T05:12:19.869Z,9.79
2022-11-05T05:13:22.039Z,9.78
2022-11-05T05:14:24.268Z,9.73
2022-11-05T05:15:26.425Z,9.77
2022-11-05T05:16:28.639Z,9.55
2022-11-05T05:17:30.816Z,9.55
2022-11-05T05:18:33.371Z,9.55
2022-11-05T05:19:55.549Z,9.54
2022-11-05T05:21:16.980Z,9.55
2022-11-05T05:22:19.130Z,9.63
2022-11-05T05:23:21.335Z,9.69
2022-11-05T05:24:24.957Z,9.65
2022-11-05T05:25:27.220Z,9.67
2022-11-05T05:26:29.444Z,9.72
2022-11-05T05:27:31.852Z,9.70
2022-11-05T05:28:34.108Z,9.74
2022-11-05T05:29:36.295Z,9.54
2022-11-05T05:30:38.504Z,9.60
2022-11-05T05:31:41.228Z,9.63
2022-11-05T05:32:43.749Z,9.73
2022-11-05T05:33:46.795Z,9.70
2022-11-05T05:34:49.118Z,9.70
2022-11-05T05:35:51.354Z,9.71
2022-11-05T05:36:53.599Z,9.71
2022-11-05T05:37:56.608Z,9.67
2022-11-05T05:38:58.790Z,9.55
2022-11-05T05:40:00.955Z,9.63
2022-11-05T05:41:03.362Z,9.75
2022-11-05T05:42:05.584Z,9.58
2022-11-05T05:43:07.880Z,9.64
2022-11-05T05:44:10.210Z,9.64
2022-11-05T05:45:12.787Z,9.66
2022-11-05T05:46:16.914Z,9.58
2022-11-05T05:47:19.136Z,9.69
2022-11-05T05:48:21.315Z,9.79
2022-11-05T05:49:23.497Z,9.64
2022-11-05T05:50:25.750Z,9.72
2022-11-05T05:51:28.004Z,9.73
2022-11-05T05:52:30.218Z,9.73
2022-11-05T05:53:32.733Z,9.68
2022-11-05T05:54:39.747Z,9.69
2022-11-05T05:55:44.643Z,9.64
2022-11-05T05:56:46.878Z,9.49
2022-11-05T05:57:49.538Z,9.47
2022-11-05T05:58:52.222Z,9.51
2022-11-05T05:59:54.640Z,9.55
2022-11-05T06:01:01.170Z,9.45
2022-11-05T06:02:03.672Z,9.52
2022-11-05T06:03:06.563Z,9.57
2022-11-05T06:04:10.285Z,9.62
2022-11-05T06:05:12.461Z,9.51
2022-11-05T06:06:15.727Z,9.51
2022-11-05T06:07:17.965Z,9.69
2022-11-05T06:08:20.138Z,9.63
2022-11-05T06:09:22.319Z,9.82
2022-11-05T06:10:25.579Z,9.65
2022-11-05T06:11:27.920Z,9.67
2022-11-05T06:12:30.129Z,9.63
2022-11-05T06:13:32.654Z,9.57
2022-11-05T06:14:34.897Z,9.62
2022-11-05T06:15:37.059Z,9.58
2022-11-05T06:16:39.994Z,9.50
2022-11-05T06:17:45.132Z,9.39
2022-11-05T06:18:47.342Z,9.40
2022-11-05T06:19:49.599Z,9.32
2022-11-05T06:20:51.740Z,9.26
2022-11-05T06:21:53.936Z,9.27
2022-11-05T06:22:57.372Z,9.02
2022-11-05T06:24:00.955Z,9.12
2022-11-05T06:25:03.297Z,9.07
2022-11-05T06:26:07.625Z,9.14
2022-11-05T06:27:10.076Z,9.16
2022-11-05T06:28:12.285Z,9.25
2022-11-05T06:29:14.558Z,9.24
2022-11-05T06:30:17.552Z,9.16
2022-11-05T06:31:19.981Z,9.16
2022-11-05T06:32:22.837Z,9.19
2022-11-05T06:33:25.204Z,9.17
2022-11-05T06:34:27.354Z,9.21
2022-11-05T06:35:29.830Z,9.24
2022-11-05T06:36:32.082Z,9.17
2022-11-05T06:37:34.474Z,9.19
2022-11-05T06:38:36.785Z,9.22
2022-11-05T06:39:38.940Z,9.17
2022-11-05T06:40:41.239Z,9.07
2022-11-05T06:42:16.614Z,9.07
2022-11-05T06:43:06.743Z,9.03
2022-11-05T06:44:08.917Z,9.02
2022-11-05T06:45:11.070Z,9.11
2022-11-05T06:46:13.318Z,9.00
2022-11-05T06:47:15.674Z,8.99
2022-11-05T06:48:18.053Z,9.00
2022-11-05T06:49:24.394Z,8.91
2022-11-05T06:50:28.030Z,8.86
2022-11-05T06:51:30.351Z,8.77
2022-11-05T06:52:34.881Z,8.77
2022-11-05T06:53:40.604Z,8.89
2022-11-05T06:54:43.808Z,8.95
2022-11-05T06:55:47.788Z,8.92
2022-11-05T06:56:49.953Z,8.96
2022-11-05T06:57:52.479Z,8.96
2022-11-05T06:58:54.679Z,9.07
2022-11-05T07:00:01.382Z,8.90
2022-11-05T07:01:09.895Z,8.76
2022-11-05T07:02:13.781Z,8.61
2022-11-05T07:03:16.124Z,8.60
2022-11-05T07:04:18.297Z,8.70
2022-11-05T07:05:20.524Z,8.89
2022-11-05T07:06:22.678Z,8.97
2022-11-05T07:11:07.600Z,8.77
2022-11-05T07:12:10.211Z,8.63
2022-11-05T07:13:12.811Z,8.53
2022-11-05T07:14:15.207Z,8.42
2022-11-05T07:15:17.445Z,8.58
2022-11-05T07:16:19.757Z,8.58
2022-11-05T07:17:22.442Z,8.66
2022-11-05T07:18:24.855Z,8.71
2022-11-05T07:19:27.057Z,8.67
2022-11-05T07:20:33.522Z,8.73
2022-11-05T07:21:36.341Z,8.69
2022-11-05T07:22:38.535Z,8.82
2022-11-05T07:23:40.711Z,8.89
2022-11-05T07:24:47.053Z,8.95
2022-11-05T07:25:49.235Z,8.94
2022-11-05T07:26:51.461Z,8.95
2022-11-05T07:27:53.666Z,8.76
2022-11-05T07:28:55.906Z,8.87
2022-11-05T07:29:58.166Z,8.86
2022-11-05T07:31:00.587Z,8.97
2022-11-05T07:32:02.766Z,9.00
2022-11-05T07:33:04.963Z,9.05
2022-11-05T07:34:07.204Z,9.10
2022-11-05T07:35:10.064Z,9.17
2022-11-05T07:36:12.562Z,9.16
2022-11-05T07:37:16.641Z,9.10
2022-11-05T07:38:19.292Z,9.04
2022-11-05T07:39:21.607Z,8.94
2022-11-05T07:40:26.912Z,8.94
2022-11-05T07:41:29.276Z,8.91
2022-11-05T07:42:31.493Z,9.07
2022-11-05T07:43:33.655Z,9.00
2022-11-05T07:44:35.875Z,9.05
2022-11-05T07:45:38.087Z,9.17
2022-11-05T07:46:43.555Z,9.12
2022-11-05T07:47:48.350Z,9.19
2022-11-05T07:48:50.560Z,9.10
2022-11-05T07:49:52.773Z,9.05
2022-11-05T07:50:54.979Z,9.11
2022-11-05T07:51:57.110Z,9.15
2022-11-05T07:53:07.105Z,9.14
2022-11-05T07:54:09.445Z,9.10
2022-11-05T07:55:13.195Z,9.21
2022-11-05T07:56:15.998Z,9.19
2022-11-05T07:57:18.155Z,9.36
2022-11-05T07:58:20.332Z,9.21
2022-11-05T07:59:22.539Z,9.04
2022-11-05T08:00:26.346Z,9.16
2022-11-05T08:01:28.865Z,9.26
2022-11-05T08:02:31.750Z,9.37
2022-11-05T08:03:34.512Z,9.53
2022-11-05T08:04:36.875Z,9.40
2022-11-05T08:05:41.964Z,9.14
2022-11-05T08:06:44.455Z,9.03
2022-11-05T08:07:46.630Z,9.07
2022-11-05T08:08:48.899Z,9.07
2022-11-05T08:09:51.081Z,9.23
2022-11-05T08:10:53.260Z,9.20
2022-11-05T08:12:02.496Z,9.32
2022-11-05T08:13:06.273Z,9.02
2022-11-05T08:14:08.513Z,9.14
2022-11-05T08:15:10.691Z,9.29
2022-11-05T08:16:12.977Z,9.40
2022-11-05T08:17:18.507Z,9.32
2022-11-05T08:18:20.823Z,9.40
2022-11-05T08:19:22.957Z,9.26
2022-11-05T08:20:26.629Z,9.26
2022-11-05T08:21:28.812Z,9.41
2022-11-05T08:22:31.349Z,9.57
2022-11-05T08:23:33.558Z,9.60
2022-11-05T08:24:35.774Z,9.68
2022-11-05T08:25:38.030Z,9.58
2022-11-05T08:26:40.999Z,9.59
2022-11-05T08:27:43.250Z,9.69
2022-11-05T08:28:45.420Z,9.76
2022-11-05T08:29:47.601Z,9.77
2022-11-05T08:30:51.454Z,9.81
2022-11-05T08:31:53.648Z,9.89
2022-11-05T08:33:00.378Z,9.89
2022-11-05T08:34:02.904Z,9.81
2022-11-05T08:35:05.638Z,9.80
2022-11-05T08:36:07.980Z,9.74
2022-11-05T08:37:10.326Z,9.76
2022-11-05T08:38:15.030Z,9.82
2022-11-05T08:39:18.772Z,9.85
2022-11-05T08:40:21.031Z,10.01
2022-11-05T08:41:23.217Z,9.96
2022-11-05T08:42:25.415Z,9.97
2022-11-05T08:43:27.587Z,10.06
2022-11-05T08:44:29.902Z,10.08
2022-11-05T08:45:32.240Z,10.07
2022-11-05T08:46:41.410Z,10.11
2022-11-05T08:47:44.024Z,10.20
2022-11-05T08:48:46.166Z,10.19
2022-11-05T08:49:48.467Z,10.10
2022-11-05T08:50:50.696Z,9.95
2022-11-05T08:51:52.870Z,9.96
2022-11-05T08:52:55.239Z,10.12
2022-11-05T08:53:57.409Z,10.29
2022-11-05T08:54:59.567Z,10.14
2022-11-05T08:56:01.854Z,10.09
2022-11-05T08:57:04.443Z,9.82
2022-11-05T08:58:12.446Z,9.99
2022-11-05T08:59:14.664Z,10.02
2022-11-05T09:00:17.068Z,9.94
2022-11-05T09:01:19.493Z,9.97
2022-11-05T09:02:21.804Z,10.19
2022-11-05T09:03:24.075Z,10.08
2022-11-05T09:04:26.229Z,10.06
2022-11-05T09:05:30.034Z,10.18
2022-11-05T09:06:32.364Z,10.00
2022-11-05T09:07:34.539Z,9.78
2022-11-05T09:08:36.696Z,9.73
2022-11-05T09:09:38.879Z,9.95
2022-11-05T09:10:42.394Z,10.11
2022-11-05T09:12:10.611Z,10.19
2022-11-05T09:13:08.120Z,10.07
2022-11-05T09:14:12.769Z,10.12
2022-11-05T09:15:15.006Z,9.96
2022-11-05T09:16:22.519Z,10.02
2022-11-05T09:17:24.754Z,10.12
2022-11-05T09:18:26.981Z,10.25
2022-11-05T09:19:29.142Z,10.24
2022-11-05T09:20:32.612Z,10.36
2022-11-05T09:21:34.739Z,10.37
2022-11-05T09:22:42.091Z,10.42
2022-11-05T09:23:46.665Z,10.50
2022-11-05T09:24:48.830Z,10.32
2022-11-05T09:25:51.085Z,9.95
2022-11-05T09:26:53.323Z,10.05
2022-11-05T09:28:06.372Z,10.16
2022-11-05T09:29:14.022Z,9.80
2022-11-05T09:30:16.670Z,9.83
2022-11-05T09:31:18.839Z,9.83
2022-11-05T09:32:23.045Z,9.88
2022-11-05T09:33:26.217Z,10.01
2022-11-05T09:34:28.408Z,10.06
2022-11-05T09:35:30.550Z,10.15
2022-11-05T09:36:32.707Z,10.38
2022-11-05T09:37:36.159Z,10.46
2022-11-05T09:38:38.356Z,10.34
2022-11-05T09:39:40.524Z,10.02
2022-11-05T09:41:01.942Z,10.09
2022-11-05T09:42:07.437Z,10.21
2022-11-05T09:43:16.937Z,10.31
2022-11-05T09:44:23.741Z,10.22
2022-11-05T09:45:28.219Z,10.24
2022-11-05T09:47:10.581Z,10.12
2022-11-05T09:48:17.574Z,10.24
2022-11-05T09:49:40.000Z,10.29
2022-11-05T09:50:46.579Z,10.34
2022-11-05T09:51:48.953Z,10.36
2022-11-05T09:52:51.309Z,10.34
2022-11-05T09:53:53.876Z,10.41
2022-11-05T09:54:57.276Z,10.54
2022-11-05T09:56:00.734Z,10.51
2022-11-05T09:57:06.427Z,10.49
2022-11-05T09:58:28.376Z,10.35
2022-11-05T09:59:40.538Z,10.30
2022-11-05T10:00:43.999Z,10.33
2022-11-05T10:01:46.934Z,10.50
2022-11-05T10:02:53.232Z,10.34
2022-11-05T10:03:58.215Z,10.39
2022-11-05T10:05:09.753Z,10.60
2022-11-05T10:06:20.467Z,10.60
2022-11-05T10:07:26.863Z,10.73
2022-11-05T10:08:34.416Z,10.72
2022-11-05T10:09:45.252Z,10.76
2022-11-05T10:10:47.357Z,10.79
2022-11-05T10:12:07.402Z,10.89
2022-11-05T10:13:18.593Z,10.74
2022-11-05T10:14:28.409Z,10.90
2022-11-05T10:15:40.226Z,11.10
2022-11-05T10:16:47.724Z,10.91
2022-11-05T10:17:57.717Z,10.86
2022-11-05T10:19:24.557Z,10.68
2022-11-05T10:20:34.023Z,10.92
2022-11-05T10:22:04.730Z,10.73
2022-11-05T10:23:18.164Z,11.24
2022-11-05T10:24:21.320Z,11.05
2022-11-05T10:25:27.369Z,10.67
2022-11-05T10:26:29.872Z,10.53
2022-11-05T10:27:36.263Z,10.40
2022-11-05T10:28:39.088Z,10.56
2022-11-05T10:29:43.360Z,10.89
2022-11-05T10:30:48.413Z,10.84
2022-11-05T10:31:53.790Z,11.10
2022-11-05T10:32:59.335Z,11.38
2022-11-05T10:34:06.322Z,11.10
2022-11-05T10:35:14.286Z,11.01
2022-11-05T10:36:25.917Z,11.10
2022-11-05T10:37:29.069Z,11.01
2022-11-05T10:38:31.922Z,11.28
2022-11-05T10:39:35.112Z,11.56
2022-11-05T10:41:01.321Z,11.52
2022-11-05T10:42:41.203Z,11.37
2022-11-05T10:44:00.556Z,11.00
2022-11-05T10:45:16.221Z,10.79
2022-11-05T10:46:27.711Z,11.09
2022-11-05T10:47:51.766Z,11.23
2022-11-05T10:49:06.703Z,11.39
2022-11-05T10:50:16.371Z,11.51
2022-11-05T10:51:19.356Z,11.34
2022-11-05T10:52:25.614Z,11.49
2022-11-05T10:53:31.921Z,11.64
2022-11-05T10:54:35.465Z,11.81
2022-11-05T10:55:43.225Z,11.80
2022-11-05T10:56:45.953Z,12.02
2022-11-05T10:57:51.861Z,11.94
2022-11-05T10:58:57.228Z,11.86
2022-11-05T11:00:21.236Z,11.46
2022-11-05T11:01:24.800Z,11.51
2022-11-05T11:02:28.209Z,11.43
2022-11-05T11:03:51.071Z,11.13
2022-11-05T11:04:55.088Z,10.80
2022-11-05T11:06:19.644Z,10.91
2022-11-05T11:07:24.620Z,11.04
2022-11-05T11:08:28.379Z,11.28
2022-11-05T11:09:33.858Z,11.25
2022-11-05T11:11:02.078Z,11.19
2022-11-05T11:12:15.381Z,11.32
2022-11-05T11:13:24.296Z,11.63
2022-11-05T11:14:26.935Z,12.08
2022-11-05T11:15:35.137Z,12.29
2022-11-05T11:16:40.727Z,12.19
2022-11-05T11:17:42.859Z,11.91
2022-11-05T11:18:45.115Z,12.15
2022-11-05T11:19:48.049Z,11.53
2022-11-05T11:20:50.267Z,11.36
2022-11-05T11:22:04.274Z,11.74
2022-11-05T11:23:15.280Z,11.98
2022-11-05T11:24:23.189Z,11.96
2022-11-05T11:25:28.455Z,12.38
2022-11-05T11:26:38.284Z,12.24
2022-11-05T11:27:40.594Z,12.09
2022-11-05T11:29:15.570Z,12.20
2022-11-05T11:30:19.881Z,12.63
2022-11-05T11:31:25.243Z,12.79
2022-11-05T11:32:34.071Z,12.31
2022-11-05T11:33:37.662Z,12.55
2022-11-05T11:34:41.838Z,12.94
2022-11-05T11:35:46.530Z,12.76
2022-11-05T11:36:53.397Z,12.69
2022-11-05T11:37:58.082Z,12.97
2022-11-05T11:39:04.254Z,13.05
2022-11-05T11:40:28.985Z,13.14
2022-11-05T11:41:33.501Z,12.98
2022-11-05T11:42:40.785Z,12.94
2022-11-05T11:43:44.882Z,12.67
2022-11-05T11:44:48.875Z,12.54
2022-11-05T11:45:54.172Z,12.54
2022-11-05T11:47:02.040Z,12.53
2022-11-05T11:48:06.876Z,12.60
2022-11-05T11:49:40.394Z,12.51
2022-11-05T11:50:46.900Z,12.44
2022-11-05T11:51:50.228Z,12.54
2022-11-05T11:52:52.519Z,12.72
2022-11-05T11:53:59.279Z,12.77
2022-11-05T11:55:17.407Z,12.78
2022-11-05T11:56:21.573Z,12.87
2022-11-05T11:57:28.658Z,13.10
2022-11-05T11:58:51.687Z,12.99
2022-11-05T12:00:08.830Z,13.13
2022-11-05T12:01:53.193Z,13.25
2022-11-05T12:03:04.214Z,13.23
2022-11-05T12:04:32.019Z,13.13
2022-11-05T12:06:23.273Z,13.15
2022-11-05T12:07:29.976Z,13.27
2022-11-05T12:09:15.127Z,13.24
2022-11-05T12:10:42.329Z,12.91
2022-11-05T12:12:05.307Z,12.87
2022-11-05T12:13:19.479Z,12.93
2022-11-05T12:14:45.194Z,12.90
2022-11-05T12:15:51.440Z,12.75
2022-11-05T12:17:18.122Z,12.59
2022-11-05T12:18:45.213Z,12.86
2022-11-05T12:19:59.424Z,12.89
2022-11-05T12:21:07.111Z,13.15
2022-11-05T12:22:17.912Z,13.20
2022-11-05T12:23:39.104Z,13.24
2022-11-05T12:24:43.977Z,13.38
2022-11-05T12:26:10.658Z,13.25
2022-11-05T12:27:34.222Z,12.65
2022-11-05T12:29:17.272Z,12.44
2022-11-05T12:30:20.009Z,12.13
2022-11-05T12:31:40.989Z,12.18
2022-11-05T12:33:01.206Z,11.61
2022-11-05T12:34:11.233Z,11.65
2022-11-05T12:35:23.727Z,11.76
2022-11-05T12:36:31.729Z,11.67
2022-11-05T12:37:46.168Z,11.53
2022-11-05T12:39:14.494Z,11.39
2022-11-05T12:40:34.722Z,11.64
2022-11-05T12:41:54.790Z,11.76
2022-11-05T12:43:44.138Z,11.54
2022-11-05T12:45:01.536Z,11.36
2022-11-05T12:46:26.684Z,11.45
2022-11-05T12:48:13.477Z,11.62
2022-11-05T12:49:59.511Z,11.52
2022-11-05T12:51:24.915Z,11.67
2022-11-05T12:53:12.676Z,12.16
2022-11-05T12:54:35.826Z,12.51
2022-11-05T12:55:41.726Z,12.42
2022-11-05T12:56:54.080Z,12.41
2022-11-05T12:58:03.826Z,12.49
2022-11-05T12:59:32.820Z,12.35
2022-11-05T13:00:37.641Z,12.22
2022-11-05T13:01:46.129Z,12.46
2022-11-05T13:02:57.823Z,12.50
2022-11-05T13:04:08.653Z,12.61
2022-11-05T13:05:19.223Z,12.39
2022-11-05T13:06:29.779Z,12.23
2022-11-05T13:07:39.300Z,12.17
2022-11-05T13:09:02.139Z,12.10
2022-11-05T13:10:13.519Z,12.05
2022-11-05T13:11:28.325Z,11.53
2022-11-05T13:12:35.242Z,11.48
2022-11-05T13:13:42.582Z,11.66
2022-11-05T13:14:50.416Z,11.75
2022-11-05T13:16:02.384Z,11.94
2022-11-05T13:17:13.589Z,11.86
2022-11-05T13:18:23.829Z,11.87
2022-11-05T13:19:38.002Z,11.71
2022-11-05T13:20:44.600Z,11.47
2022-11-05T13:21:53.254Z,11.60
2022-11-05T13:23:05.580Z,11.68
2022-11-05T13:24:22.892Z,11.83
2022-11-05T13:25:38.912Z,11.87
2022-11-05T13:27:03.450Z,11.43
2022-11-05T13:28:12.208Z,11.27
2022-11-05T13:29:20.912Z,11.38
2022-11-05T13:30:26.269Z,11.19
2022-11-05T13:31:45.370Z,10.89
2022-11-05T13:33:03.210Z,10.82
2022-11-05T13:34:11.186Z,10.83
2022-11-05T13:35:18.021Z,10.86
2022-11-05T13:36:50.970Z,10.98
2022-11-05T13:38:20.569Z,11.16
2022-11-05T13:39:45.543Z,11.38
2022-11-05T13:41:31.421Z,11.22
2022-11-05T13:43:04.067Z,11.23
2022-11-05T13:44:27.002Z,11.27
2022-11-05T13:45:52.244Z,11.12
2022-11-05T13:47:37.557Z,11.40
2022-11-05T13:49:36.885Z,11.67
2022-11-05T13:50:59.542Z,11.73
2022-11-05T13:52:10.646Z,11.29
2022-11-05T13:53:34.710Z,11.36
2022-11-05T14:00:29.603Z,11.14
2022-11-05T14:01:31.828Z,11.35
2022-11-05T14:02:55.393Z,11.55
2022-11-05T14:03:58.024Z,11.65
2022-11-05T14:05:01.983Z,11.39
2022-11-05T14:06:09.545Z,11.47
2022-11-05T14:07:20.819Z,11.54
2022-11-05T14:08:27.503Z,11.48
2022-11-05T14:09:29.724Z,11.22
2022-11-05T14:10:42.160Z,11.19
2022-11-05T14:11:51.210Z,11.27
2022-11-05T14:12:55.995Z,11.27
2022-11-05T14:14:05.056Z,11.10
2022-11-05T14:15:21.135Z,11.08
2022-11-05T14:16:26.182Z,10.71
2022-11-05T14:17:32.086Z,10.98
2022-11-05T14:18:37.994Z,10.96
2022-11-05T14:19:48.909Z,10.81
2022-11-05T14:21:01.771Z,10.64
2022-11-05T14:22:31.409Z,10.86
2022-11-05T14:23:40.280Z,10.75
2022-11-05T14:24:44.134Z,10.81
2022-11-05T14:25:56.321Z,10.93
2022-11-05T14:27:01.122Z,10.85
2022-11-05T14:28:35.221Z,10.65
2022-11-05T14:29:41.454Z,10.63
2022-11-05T14:30:46.113Z,10.75
2022-11-05T14:33:38.222Z,10.73
2022-11-05T14:34:44.533Z,10.96
2022-11-05T14:35:46.756Z,10.96
2022-11-05T14:37:10.626Z,10.72
2022-11-05T14:38:27.321Z,10.70
2022-11-05T14:39:31.331Z,10.73
2022-11-05T14:40:37.190Z,10.70
2022-11-05T14:42:15.164Z,10.65
2022-11-05T14:43:21.740Z,10.96
2022-11-05T14:44:26.128Z,10.76
2022-11-05T14:45:42.389Z,10.64
2022-11-05T14:46:47.856Z,10.60
2022-11-05T14:47:54.367Z,10.73
2022-11-05T14:49:08.050Z,10.87
2022-11-05T14:50:40.450Z,10.98
2022-11-05T14:51:45.805Z,10.68
2022-11-05T14:53:01.635Z,10.74
2022-11-05T14:54:05.393Z,10.81
2022-11-05T14:55:26.885Z,11.00
2022-11-05T14:56:29.486Z,10.91
2022-11-05T14:57:40.511Z,10.81
2022-11-05T14:58:44.188Z,10.75
2022-11-05T14:59:58.399Z,10.94
2022-11-05T15:01:02.400Z,10.74
2022-11-05T15:02:13.289Z,10.75
2022-11-05T15:03:36.899Z,10.73
2022-11-05T15:04:49.277Z,10.61
2022-11-05T15:05:53.001Z,10.78
2022-11-05T15:07:04.265Z,10.76
2022-11-05T15:08:29.389Z,10.66
2022-11-05T15:09:34.317Z,10.73
2022-11-05T15:10:37.517Z,10.78
2022-11-05T15:11:45.457Z,10.84
2022-11-05T15:12:56.424Z,10.92
2022-11-05T15:14:05.452Z,10.99